KFDY

Findlay Airport

Findlay, Ohio, USA
KFDY 171814Z 1718/1818 13008KT 2SM -SN BR OVC035 TEMPO 1718/1721 1SM -SN BKN008 OVC015 FM172100 14007KT 1SM -SN OVC007 FM180000 22007KT 5SM -SN BR OVC005 FM180600 28006KT 2SM BR OVC004 FM181400 27006KT 5SM BR OVC007
Issued Valid From Valid To
Jan-17 @ 18:14 UTC
(5 hours ago)
Jan-17 @ 18:00 UTC
(5 hours ago)
Jan-18 @ 18:00 UTC
(in 19 hours)
Expired Click to View Jan-17 @ 18:00 to Jan-17 @ 21:00
KFDY 171814Z 1718/1818 13008KT 2SM -SN BR OVC035
Wind Visibility Clouds Conditions
130° at 8 knots 2 miles
  • Overcast at 3,500' AGL
  • Light Snow
  • Mist
Expired Click to View Jan-17 @ 18:00 to Jan-17 @ 21:00
TEMPO 1718/1721 1SM -SN BKN008 OVC015
Visibility Clouds Conditions
1 miles
  • Broken at 800' AGL
  • Overcast at 1,500' AGL
  • Light Snow
From Jan-17 @ 21:00 to Jan-18 @ 00:00
FM172100 14007KT 1SM -SN OVC007
Wind Visibility Clouds Conditions
140° at 7 knots 1 miles
  • Overcast at 700' AGL
  • Light Snow
From Jan-18 @ 00:00 to Jan-18 @ 06:00
FM180000 22007KT 5SM -SN BR OVC005
Wind Visibility Clouds Conditions
220° at 7 knots 5 miles
  • Overcast at 500' AGL
  • Light Snow
  • Mist
From Jan-18 @ 06:00 to Jan-18 @ 14:00
FM180600 28006KT 2SM BR OVC004
Wind Visibility Clouds Conditions
280° at 6 knots 2 miles
  • Overcast at 400' AGL
  • Mist
From Jan-18 @ 14:00 to Jan-18 @ 18:00
FM181400 27006KT 5SM BR OVC007
Wind Visibility Clouds Conditions
270° at 6 knots 5 miles
  • Overcast at 700' AGL
  • Mist
KFDY 171814Z 1718/1818 13008KT 2SM -SN BR OVC035 TEMPO 1718/1721 1SM -SN BKN008 OVC015 FM172100 14007KT 1SM -SN OVC007 FM180000 22007KT 5SM -SN BR OVC005 FM180600 28006KT 2SM BR OVC004 FM181400 27006KT 5SM BR OVC007
Issued Jan-17 @ 18:14 UTC
(5 hours ago)
Valid From Jan-17 @ 18:00 UTC
(5 hours ago)
Valid To Jan-18 @ 18:00 UTC
(in 19 hours)
Jan-17 @ 18:00 - Jan-17 @ 21:00
Wind Visibility
130° at 8 knots 2 miles
Clouds
  • Overcast at 3,500' AGL
Conditions
  • Light Snow
  • Mist
Jan-17 @ 18:00 - Jan-17 @ 21:00
Clouds
  • Broken at 800' AGL
  • Overcast at 1,500' AGL
Conditions
  • Light Snow
From Jan-17 @ 21:00 - Jan-18 @ 00:00
Wind Visibility
140° at 7 knots 1 miles
Clouds
  • Overcast at 700' AGL
Conditions
  • Light Snow
From Jan-18 @ 00:00 - Jan-18 @ 06:00
Wind Visibility
220° at 7 knots 5 miles
Clouds
  • Overcast at 500' AGL
Conditions
  • Light Snow
  • Mist
From Jan-18 @ 06:00 - Jan-18 @ 14:00
Wind Visibility
280° at 6 knots 2 miles
Clouds
  • Overcast at 400' AGL
Conditions
  • Mist
From Jan-18 @ 14:00 - Jan-18 @ 18:00
Wind Visibility
270° at 6 knots 5 miles
Clouds
  • Overcast at 700' AGL
Conditions
  • Mist